Time;durP1;ratioP1;P1;durP2;ratioP2;P2;SDS_P1;SDS_P2;PMS_P1;PMS_P2;Temp;Humidity;BMP_temperature;BMP_pressure;BME280_temperature;BME280_humidity;BME280_pressure;Samples;Min_cycle;Max_cycle;Signal;HPM_P1;HPM_P2
2021/05/11 00:01:10;;;;;;;0.35;0.35;;;;;;;5.39;74.11;101251.77;1806021;78;21596;-45
2021/05/11 00:03:38;;;;;;;0.20;0.20;;;;;;;5.42;74.19;101247.78;1806070;79;21113;-45
2021/05/11 00:06:06;;;;;;;0.30;0.30;;;;;;;5.46;74.22;101247.08;1806898;78;21125;-46
2021/05/11 00:08:33;;;;;;;0.13;0.13;;;;;;;5.48;74.12;101249.04;1820529;78;21630;-45
2021/05/11 00:11:01;;;;;;;1.65;1.02;;;;;;;5.49;74.18;101246.65;1820747;78;21498;-45
2021/05/11 00:13:29;;;;;;;0.13;0.13;;;;;;;5.52;74.16;101243.48;1820459;78;21143;-45
2021/05/11 00:15:56;;;;;;;0.00;0.00;;;;;;;5.54;74.00;101241.38;1806985;78;21379;-45
2021/05/11 00:18:24;;;;;;;0.10;0.10;;;;;;;5.56;73.97;101246.05;1806143;79;21169;-45
2021/05/11 00:20:52;;;;;;;0.00;0.00;;;;;;;5.58;73.84;101249.34;1821107;78;21131;-45
2021/05/11 00:23:19;;;;;;;0.20;0.20;;;;;;;5.63;73.78;101239.70;1824502;78;21142;-45
2021/05/11 00:25:48;;;;;;;0.30;0.30;;;;;;;5.68;73.71;101242.56;1823060;78;21115;-45
2021/05/11 00:28:15;;;;;;;0.10;0.10;;;;;;;5.74;73.71;101234.35;1822963;78;21434;-45
2021/05/11 00:30:43;;;;;;;0.40;0.40;;;;;;;5.79;73.70;101230.96;1820192;78;21154;-45
2021/05/11 00:33:10;;;;;;;0.23;0.23;;;;;;;5.83;73.77;101226.71;1820710;78;21659;-45
2021/05/11 00:35:38;;;;;;;0.60;0.60;;;;;;;5.89;73.79;101221.74;1820360;78;21552;-45
2021/05/11 00:38:05;;;;;;;0.20;0.20;;;;;;;5.95;73.80;101218.12;1788884;78;21438;-45
2021/05/11 00:40:33;;;;;;;0.30;0.30;;;;;;;6.01;73.79;101218.58;1801918;78;21410;-45
2021/05/11 00:43:01;;;;;;;0.20;0.20;;;;;;;6.09;73.69;101214.71;1813613;78;21043;-45
2021/05/11 00:45:28;;;;;;;0.28;0.13;;;;;;;6.15;73.66;101206.17;1816773;78;21123;-45
2021/05/11 00:47:56;;;;;;;0.40;0.40;;;;;;;6.22;73.61;101204.19;1819892;78;21138;-45
2021/05/11 00:50:24;;;;;;;0.17;0.17;;;;;;;6.27;73.46;101201.60;1818573;78;21440;-45
2021/05/11 00:52:53;;;;;;;0.50;0.50;;;;;;;6.32;73.44;101192.77;1818930;78;21157;-45
2021/05/11 00:55:20;;;;;;;0.30;0.30;;;;;;;6.37;73.37;101191.00;1819628;78;21179;-45
2021/05/11 00:57:48;;;;;;;0.10;0.10;;;;;;;6.49;73.03;101183.41;1787148;78;21134;-45
2021/05/11 01:00:17;;;;;;;0.08;0.05;;;;;;;6.60;72.13;101182.58;1791964;78;21174;-45
2021/05/11 01:02:46;;;;;;;0.10;0.10;;;;;;;6.83;69.49;101185.32;1809149;78;21105;-45
2021/05/11 01:05:14;;;;;;;0.00;0.00;;;;;;;7.14;68.52;101179.20;1809706;78;21151;-45
2021/05/11 01:07:42;;;;;;;0.28;0.28;;;;;;;7.38;66.45;101172.37;1819889;78;21122;-45
2021/05/11 01:10:10;;;;;;;0.40;0.40;;;;;;;7.63;65.47;101171.52;1787773;78;21158;-45
2021/05/11 01:12:37;;;;;;;0.28;0.28;;;;;;;7.84;64.94;101184.14;1818767;78;21675;-45
2021/05/11 01:15:08;;;;;;;0.10;0.10;;;;;;;8.01;63.67;101188.27;1814886;78;21630;-45
2021/05/11 01:17:37;;;;;;;0.10;0.10;;;;;;;8.15;62.55;101180.91;1805295;78;21109;-45
2021/05/11 01:20:13;;;;;;;0.37;0.37;;;;;;;8.33;61.45;101179.03;1827023;77;21157;-45
2021/05/11 01:23:02;;;;;;;0.35;0.35;;;;;;;8.49;59.94;101174.71;1772277;80;21147;-45
2021/05/11 01:25:19;;;;;;;0.00;0.00;;;;;;;8.69;58.95;101170.13;1768092;80;21765;-45
2021/05/11 01:54:31;;;;;;;0.20;0.20;;;;;;;9.59;54.11;101170.77;1784672;80;21151;-45
2021/05/11 02:24:10;;;;;;;0.85;0.37;;;;;;;9.93;52.95;101179.61;1756628;81;21154;-45
2021/05/11 02:26:35;;;;;;;0.13;0.13;;;;;;;9.93;52.76;101167.32;1756753;81;21592;-45
2021/05/11 02:29:03;;;;;;;0.10;0.10;;;;;;;9.93;52.82;101165.14;1737284;81;21166;-45
2021/05/11 02:31:31;;;;;;;0.28;0.28;;;;;;;9.93;52.82;101165.96;1753585;81;21050;-45
2021/05/11 02:33:59;;;;;;;0.23;0.23;;;;;;;9.94;52.48;101174.97;1755194;81;21150;-45
2021/05/11 02:36:26;;;;;;;0.08;0.08;;;;;;;9.95;52.72;101168.44;1755226;81;21154;-45
2021/05/11 02:38:54;;;;;;;0.35;0.35;;;;;;;9.96;52.09;101162.70;1768282;80;21154;-45
2021/05/11 02:41:21;;;;;;;0.65;0.45;;;;;;;9.99;52.29;101159.48;1764954;78;21134;-45
2021/05/11 02:43:51;;;;;;;0.82;0.50;;;;;;;10.02;51.62;101167.16;1788843;78;21122;-45
2021/05/11 02:46:19;;;;;;;0.10;0.10;;;;;;;10.05;51.91;101161.72;1765725;79;21151;-45
2021/05/11 02:48:46;;;;;;;2.60;0.30;;;;;;;10.08;51.62;101172.11;1822069;78;21217;-45
2021/05/11 02:51:14;;;;;;;0.45;0.45;;;;;;;10.10;51.53;101167.22;1792214;79;21131;-45
2021/05/11 02:53:41;;;;;;;0.33;0.33;;;;;;;10.13;50.92;101162.05;1776575;79;21107;-45
2021/05/11 02:56:09;;;;;;;0.20;0.20;;;;;;;10.18;50.79;101150.91;1788789;78;21137;-45
2021/05/11 02:58:38;;;;;;;0.42;0.42;;;;;;;10.23;50.78;101150.40;1775376;80;21176;-45
2021/05/11 03:01:05;;;;;;;0.10;0.10;;;;;;;10.26;50.64;101140.86;1788318;80;21109;-45
2021/05/11 03:03:33;;;;;;;0.35;0.30;;;;;;;10.28;50.25;101147.73;1768501;80;21001;-45
2021/05/11 03:06:00;;;;;;;0.10;0.10;;;;;;;10.33;50.74;101139.58;1789438;80;21165;-45
2021/05/11 03:08:28;;;;;;;0.53;0.53;;;;;;;10.37;50.24;101145.91;1775008;80;21098;-45
2021/05/11 03:10:56;;;;;;;0.40;0.40;;;;;;;10.40;50.09;101142.66;1745698;81;21620;-45
2021/05/11 03:13:24;;;;;;;0.40;0.30;;;;;;;10.45;49.63;101142.14;1794372;78;21153;-45
2021/05/11 03:15:52;;;;;;;0.20;0.20;;;;;;;10.51;49.59;101140.30;1788664;79;21121;-45
2021/05/11 03:18:19;;;;;;;0.53;0.50;;;;;;;10.58;49.27;101141.41;1779185;80;21151;-45
2021/05/11 03:20:48;;;;;;;0.37;0.20;;;;;;;10.63;49.28;101137.34;1758867;80;21142;-45
2021/05/11 03:23:16;;;;;;;0.35;0.35;;;;;;;10.65;49.52;101134.63;1763293;79;21580;-45
2021/05/11 03:25:44;;;;;;;0.68;0.53;;;;;;;10.68;49.48;101128.66;1764702;79;21170;-45
2021/05/11 03:28:11;;;;;;;0.20;0.20;;;;;;;10.72;49.02;101124.30;1781230;80;21110;-45
2021/05/11 03:30:41;;;;;;;0.17;0.17;;;;;;;10.78;49.30;101125.69;1773092;79;21146;-45
2021/05/11 03:33:10;;;;;;;1.12;0.98;;;;;;;10.81;48.69;101126.00;1768800;78;21169;-45
2021/05/11 03:35:38;;;;;;;0.35;0.35;;;;;;;10.86;48.59;101133.41;1764437;80;21146;-45
2021/05/11 03:38:07;;;;;;;0.75;0.30;;;;;;;10.90;49.04;101135.88;1788272;80;21125;-45
2021/05/11 03:40:34;;;;;;;0.42;0.42;;;;;;;10.94;48.36;101133.72;1778873;80;21515;-45
2021/05/11 03:43:06;;;;;;;0.28;0.20;;;;;;;11.02;48.22;101146.06;1743363;80;21122;-46
2021/05/11 03:45:36;;;;;;;0.37;0.37;;;;;;;11.09;48.99;101138.45;1755595;79;21162;-45
2021/05/11 03:48:10;;;;;;;0.20;0.20;;;;;;;11.18;48.75;101131.39;1848675;77;22832;-45
2021/05/11 03:50:47;;;;;;;0.10;0.10;;;;;;;11.25;48.73;101126.20;1844772;77;22014;-45
2021/05/11 03:53:24;;;;;;;0.20;0.20;;;;;;;11.31;48.54;101131.98;1901069;74;22607;-45
2021/05/11 03:56:10;;;;;;;0.10;0.10;;;;;;;11.32;47.90;101132.25;1849712;77;21510;-45
2021/05/11 03:58:47;;;;;;;0.13;0.13;;;;;;;11.47;47.54;101130.93;1841197;76;22646;-45
2021/05/11 04:01:25;;;;;;;2.22;0.85;;;;;;;11.54;47.67;101130.69;1823951;76;22748;-45
2021/05/11 04:04:02;;;;;;;0.70;0.45;;;;;;;11.60;47.20;101135.92;1854621;75;27790;-45
2021/05/11 04:06:47;;;;;;;4.03;1.62;;;;;;;11.64;47.61;101141.66;1826986;77;21221;-45
2021/05/11 04:12:27;;;;;;;6.53;4.00;;;;;;;11.77;47.53;101132.11;1860219;76;27645;-45
2021/05/11 04:17:59;;;;;;;3.37;2.00;;;;;;;11.95;47.07;101145.33;1846873;76;22688;-45
2021/05/11 04:20:46;;;;;;;2.52;0.55;;;;;;;11.96;46.35;101141.48;1786248;78;21262;-45
2021/05/11 04:23:23;;;;;;;0.28;0.23;;;;;;;12.06;46.29;101125.61;1818334;76;22638;-45
2021/05/11 04:26:00;;;;;;;0.17;0.17;;;;;;;12.11;45.97;101115.20;1883993;76;22661;-45
2021/05/11 04:28:37;;;;;;;0.55;0.55;;;;;;;12.15;46.61;101117.69;1856376;76;37942;-45
2021/05/11 04:31:22;;;;;;;0.25;0.20;;;;;;;12.16;46.60;101115.20;1803560;78;21682;-45
2021/05/11 04:34:00;;;;;;;0.88;0.88;;;;;;;12.26;46.40;101123.42;1839247;76;22697;-45
2021/05/11 04:36:37;;;;;;;1.12;0.85;;;;;;;12.30;46.49;101116.86;1818250;76;22654;-45
2021/05/11 04:39:14;;;;;;;0.35;0.35;;;;;;;12.33;45.93;101119.86;1831237;76;22748;-45
2021/05/11 04:41:51;;;;;;;0.10;0.10;;;;;;;12.39;45.55;101111.11;1873694;76;22625;-45
2021/05/11 04:44:31;;;;;;;0.30;0.30;;;;;;;12.45;45.58;101107.25;1852290;75;28262;-45
2021/05/11 04:47:18;;;;;;;0.65;0.65;;;;;;;12.53;45.77;101104.50;1847662;76;23243;-45
2021/05/11 04:50:03;;;;;;;0.10;0.10;;;;;;;12.57;45.96;101109.71;1793389;78;22406;-45
2021/05/11 04:52:40;;;;;;;1.10;0.55;;;;;;;12.68;45.32;101097.61;1864080;76;22645;-45
2021/05/11 04:55:16;;;;;;;0.70;0.30;;;;;;;12.75;45.94;101091.84;1867487;76;27671;-45
2021/05/11 04:58:02;;;;;;;0.45;0.45;;;;;;;12.79;45.47;101097.87;1773326;80;21152;-45
2021/05/11 05:00:39;;;;;;;0.13;0.13;;;;;;;12.96;45.63;101092.59;1816218;76;23301;-45
2021/05/11 05:03:24;;;;;;;0.45;0.30;;;;;;;13.05;45.82;101096.41;1826363;76;22627;-46
2021/05/11 05:05:58;;;;;;;1.80;1.05;;;;;;;13.15;46.68;101100.48;1847783;75;22625;-45
2021/05/11 05:08:43;;;;;;;0.15;0.15;;;;;;;13.19;46.36;101102.94;1806864;78;21260;-46
2021/05/11 05:11:20;;;;;;;1.22;0.90;;;;;;;13.30;46.19;101094.98;1862080;76;27562;-46
2021/05/11 05:13:59;;;;;;;0.30;0.30;;;;;;;13.43;46.35;101102.33;1813262;76;22769;-46
2021/05/11 05:16:36;;;;;;;0.17;0.17;;;;;;;13.54;46.44;101103.90;1828767;76;22061;-45
2021/05/11 05:19:14;;;;;;;0.20;0.20;;;;;;;13.60;46.37;101097.28;1839671;77;22690;-46
2021/05/11 05:22:00;;;;;;;0.30;0.30;;;;;;;13.61;47.05;101097.55;1790029;80;21095;-46
2021/05/11 05:24:42;;;;;;;0.62;0.20;;;;;;;13.73;47.32;101100.77;1854099;76;22658;-45
2021/05/11 05:27:22;;;;;;;0.37;0.37;;;;;;;13.76;46.10;101099.38;1867568;75;27789;-45
2021/05/11 05:30:08;;;;;;;0.20;0.20;;;;;;;13.75;46.25;101099.93;1823107;78;21198;-45
2021/05/11 05:32:46;;;;;;;0.80;0.40;;;;;;;13.85;46.58;101096.86;1887672;76;23335;-46
2021/05/11 05:35:23;;;;;;;0.98;0.98;;;;;;;13.86;47.07;101093.80;1859294;76;22714;-46
2021/05/11 05:37:58;;;;;;;0.30;0.20;;;;;;;13.89;47.10;101091.04;1884933;74;23343;-46
2021/05/11 05:40:40;;;;;;;0.80;0.57;;;;;;;13.93;46.50;101086.06;1856526;76;21506;-45
2021/05/11 05:43:22;;;;;;;0.30;0.30;;;;;;;13.92;46.23;101093.20;1820707;78;21543;-46
2021/05/11 05:45:58;;;;;;;0.20;0.20;;;;;;;13.97;46.15;101093.16;1857170;74;27667;-47
2021/05/11 05:48:36;;;;;;;0.10;0.10;;;;;;;13.99;46.39;101082.71;1877912;76;22062;-46
2021/05/11 05:51:14;;;;;;;0.30;0.30;;;;;;;14.07;46.66;101086.23;1884415;75;22014;-46
2021/05/11 05:53:51;;;;;;;0.53;0.40;;;;;;;14.13;46.83;101078.20;1840625;76;22713;-45
2021/05/11 05:56:36;;;;;;;0.40;0.10;;;;;;;14.13;47.29;101083.70;1755493;80;21157;-46
2021/05/11 05:59:16;;;;;;;0.33;0.33;;;;;;;14.24;46.22;101078.92;1835592;76;23282;-45
2021/05/11 06:01:53;;;;;;;0.30;0.30;;;;;;;14.29;46.07;101078.06;1821856;76;22697;-45
2021/05/11 06:04:30;;;;;;;0.10;0.10;;;;;;;14.34;46.71;101075.27;1878513;76;20280;-46
2021/05/11 06:07:05;;;;;;;0.62;0.17;;;;;;;14.37;46.48;101077.46;1887255;76;23249;-46
2021/05/11 06:09:42;;;;;;;0.23;0.23;;;;;;;14.40;46.61;101070.00;1861987;76;22730;-46
2021/05/11 06:12:34;;;;;;;0.45;0.45;;;;;;;14.40;46.17;101072.19;1818866;78;21563;-46
2021/05/11 06:17:45;;;;;;;0.50;0.50;;;;;;;14.57;46.63;101070.97;1832563;76;22634;-45
2021/05/11 06:20:31;;;;;;;2.15;0.53;;;;;;;14.54;46.13;101066.87;1780020;80;21122;-45
2021/05/11 06:23:08;;;;;;;0.47;0.47;;;;;;;14.62;47.22;101060.72;1847221;76;23252;-46
2021/05/11 06:25:45;;;;;;;1.20;0.33;;;;;;;14.67;46.73;101060.41;1853394;76;22749;-45
2021/05/11 06:28:37;;;;;;;0.30;0.20;;;;;;;14.66;47.21;101054.63;1824319;77;21138;-45
2021/05/11 06:31:10;;;;;;;0.37;0.37;;;;;;;14.71;46.95;101054.57;1847516;76;23304;-45
2021/05/11 06:33:48;;;;;;;1.07;0.28;;;;;;;14.67;47.47;101048.03;1881398;76;23265;-45
2021/05/11 06:36:25;;;;;;;0.65;0.57;;;;;;;14.63;47.96;101045.84;1876803;75;22758;-45
2021/05/11 06:39:13;;;;;;;2.45;0.33;;;;;;;14.66;48.00;101042.25;1854225;77;21111;-45
2021/05/11 06:41:57;;;;;;;0.37;0.20;;;;;;;14.90;48.96;101032.63;1857486;76;22691;-45
2021/05/11 06:55:31;;;;;;;0.30;0.30;;;;;;;16.63;47.00;101015.82;1780440;80;21811;-45
2021/05/11 06:58:09;;;;;;;0.25;0.25;;;;;;;17.03;47.61;100998.99;1871290;76;38452;-45
2021/05/11 07:00:46;;;;;;;0.70;0.70;;;;;;;17.43;47.27;100995.63;1841789;76;23283;-45
2021/05/11 07:03:32;;;;;;;0.10;0.10;;;;;;;17.76;47.34;100990.69;1815197;79;21166;-45
2021/05/11 07:06:12;;;;;;;0.90;0.30;;;;;;;18.25;45.98;100980.03;1805211;77;28393;-45
2021/05/11 07:08:53;;;;;;;3.30;0.60;;;;;;;18.69;46.07;100988.48;1836209;76;22674;-45
2021/05/11 07:14:12;;;;;;;0.30;0.30;;;;;;;19.44;44.58;100970.46;1859833;76;27690;-46
2021/05/11 07:16:49;;;;;;;0.10;0.10;;;;;;;19.71;43.14;100970.14;1872451;76;22664;-46
2021/05/11 07:19:38;;;;;;;0.10;0.10;;;;;;;19.85;43.73;100966.34;1838258;77;21091;-46
2021/05/11 07:22:16;;;;;;;0.10;0.10;;;;;;;20.05;42.69;100955.92;1840149;76;22219;-46
2021/05/11 07:24:56;;;;;;;0.20;0.20;;;;;;;20.19;43.30;100951.56;1865785;76;23309;-45
2021/05/11 07:30:37;;;;;;;0.28;0.28;;;;;;;20.32;42.17;100958.04;1839530;76;27831;-46
2021/05/11 07:33:15;;;;;;;1.85;0.40;;;;;;;20.36;41.70;100956.23;1847313;76;23646;-46
2021/05/11 07:35:52;;;;;;;0.05;0.05;;;;;;;20.50;41.61;100960.16;1850818;77;23045;-45
2021/05/11 07:38:34;;;;;;;1.17;0.30;;;;;;;20.71;40.46;100956.09;1852764;76;22610;-45
2021/05/11 07:41:20;;;;;;;1.42;0.95;;;;;;;20.77;40.17;100954.73;1816954;78;21565;-45
2021/05/11 07:44:01;;;;;;;0.53;0.37;;;;;;;20.72;41.06;100945.20;1862621;76;24031;-45
2021/05/11 08:04:25;;;;;;;0.28;0.28;;;;;;;21.36;40.26;100942.69;1837897;76;22265;-46
2021/05/11 08:15:54;;;;;;;0.20;0.20;;;;;;;21.20;40.92;100934.98;1845192;77;23327;-46
2021/05/11 08:30:10;;;;;;;0.57;0.53;;;;;;;22.39;39.79;100914.13;1808144;76;28671;-46
2021/05/11 08:32:56;;;;;;;0.42;0.40;;;;;;;22.42;40.31;100905.06;1785341;80;21145;-46
2021/05/11 08:35:33;;;;;;;0.47;0.33;;;;;;;22.58;39.08;100899.03;1817642;76;23239;-46
2021/05/11 08:38:10;;;;;;;1.52;0.60;;;;;;;22.60;38.13;100905.07;1860828;76;27620;-46
2021/05/11 08:40:57;;;;;;;0.55;0.45;;;;;;;22.51;37.65;100908.55;1751985;81;21153;-46
2021/05/11 08:43:37;;;;;;;0.57;0.47;;;;;;;22.44;38.89;100891.61;1820134;76;22654;-46
2021/05/11 08:46:14;;;;;;;0.75;0.70;;;;;;;22.48;38.58;100884.20;1838977;76;22661;-46
2021/05/11 08:49:04;;;;;;;0.75;0.30;;;;;;;22.44;39.16;100895.20;1785134;80;21143;-46
2021/05/11 08:54:39;;;;;;;0.17;0.10;;;;;;;22.15;38.83;100887.06;1833205;76;22662;-46
2021/05/11 09:23:35;;;;;;;0.50;0.30;;;;;;;23.25;37.25;100846.50;1817542;76;27678;-46
2021/05/11 09:29:45;;;;;;;0.20;0.20;;;;;;;23.50;36.37;100829.63;1872832;75;22689;-46
2021/05/11 10:31:20;;;;;;;0.08;0.00;;;;;;;24.56;35.42;100773.40;1833322;76;22666;-46
2021/05/11 10:42:29;;;;;;;0.20;0.20;;;;;;;25.15;33.64;100750.41;1841441;77;21488;-46
2021/05/11 10:51:17;;;;;;;0.33;0.10;;;;;;;25.42;34.82;100747.69;1817372;76;23198;-46
2021/05/11 10:54:08;;;;;;;0.20;0.20;;;;;;;25.60;33.45;100740.42;1866402;76;22823;-46
2021/05/11 10:56:55;;;;;;;0.42;0.10;;;;;;;25.70;33.63;100749.57;1822141;78;21600;-46
2021/05/11 10:59:43;;;;;;;0.28;0.20;;;;;;;25.70;33.35;100750.97;1831193;76;23277;-46
2021/05/11 11:03:27;;;;;;;0.35;0.30;;;;;;;25.60;33.15;100746.02;1791783;77;22623;-88
2021/05/11 11:06:02;;;;;;;0.20;0.20;;;;;;;25.53;33.79;100739.70;1830850;76;27679;-46
2021/05/11 11:08:42;;;;;;;0.30;0.30;;;;;;;25.49;33.57;100738.02;1850358;76;22733;-46
2021/05/11 11:11:27;;;;;;;0.25;0.25;;;;;;;25.45;33.58;100739.97;1854982;77;21103;-46
2021/05/11 11:14:04;;;;;;;0.35;0.35;;;;;;;25.59;33.41;100737.38;1886977;76;22628;-46
2021/05/11 11:16:39;;;;;;;2.37;0.78;;;;;;;25.73;33.05;100734.82;1827222;76;27690;-46
2021/05/11 11:19:25;;;;;;;0.57;0.30;;;;;;;25.80;32.55;100731.34;1783855;80;21602;-46
2021/05/11 11:25:07;;;;;;;1.00;0.55;;;;;;;26.04;34.22;100721.73;1846779;76;22613;-46
2021/05/11 11:27:42;;;;;;;0.20;0.20;;;;;;;26.15;33.63;100716.27;1816161;76;27780;-46
2021/05/11 11:30:27;;;;;;;0.10;0.10;;;;;;;26.36;33.57;100715.76;1692934;83;21189;-47
2021/05/11 11:33:04;;;;;;;0.20;0.20;;;;;;;26.68;32.09;100713.95;1896893;74;27608;-46
2021/05/11 11:35:42;;;;;;;0.20;0.20;;;;;;;26.90;31.30;100710.18;1887341;76;21947;-46
2021/05/11 11:38:28;;;;;;;1.85;0.62;;;;;;;26.99;30.48;100702.27;1825532;77;21603;-46
2021/05/11 11:41:05;;;;;;;0.45;0.45;;;;;;;27.11;30.03;100698.98;1821784;76;22812;-46
2021/05/11 11:43:42;;;;;;;0.57;0.57;;;;;;;27.18;29.87;100687.84;1815575;76;22672;-46
2021/05/11 11:46:30;;;;;;;0.23;0.20;;;;;;;27.21;30.15;100696.91;1844219;76;22684;-46
2021/05/11 11:49:18;;;;;;;0.20;0.20;;;;;;;27.21;30.47;100696.91;1781193;80;21170;-47
2021/05/11 11:52:01;;;;;;;4.72;0.90;;;;;;;27.22;29.74;100697.90;1842637;76;22745;-47
2021/05/11 12:00:32;;;;;;;0.28;0.28;;;;;;;27.16;30.33;100694.42;1824492;76;22693;-47
2021/05/11 12:03:12;;;;;;;0.42;0.20;;;;;;;27.19;31.19;100690.87;1864503;76;23781;-47
2021/05/11 12:06:01;;;;;;;0.50;0.25;;;;;;;27.18;31.66;100689.23;1824074;78;21246;-46
2021/05/11 12:08:38;;;;;;;0.75;0.75;;;;;;;27.17;32.62;100690.41;1818533;76;22677;-46
2021/05/11 12:11:15;;;;;;;0.40;0.40;;;;;;;26.96;31.79;100689.62;1864424;76;27541;-46
2021/05/11 12:14:00;;;;;;;0.30;0.25;;;;;;;26.67;30.02;100694.13;1808263;78;21136;-46
2021/05/11 12:16:42;;;;;;;0.20;0.20;;;;;;;26.58;31.18;100686.01;1886418;76;22696;-46
2021/05/11 12:19:23;;;;;;;1.45;0.62;;;;;;;26.51;30.47;100683.12;1846344;76;22672;-47
2021/05/11 12:22:09;;;;;;;0.78;0.70;;;;;;;26.38;31.47;100692.34;1741263;81;21257;-46
2021/05/11 12:24:48;;;;;;;0.33;0.33;;;;;;;26.09;32.79;100686.40;1847448;77;23349;-46
2021/05/11 12:27:26;;;;;;;0.47;0.30;;;;;;;25.98;32.94;100675.63;1834725;76;23172;-46
2021/05/11 12:30:06;;;;;;;0.55;0.20;;;;;;;25.90;31.57;100689.33;1853242;76;22735;-46
2021/05/11 12:33:02;;;;;;;0.13;0.13;;;;;;;25.74;32.34;100700.08;1849295;77;21114;-46
2021/05/11 12:35:41;;;;;;;0.45;0.42;;;;;;;25.69;33.61;100679.41;1849300;77;22739;-46
2021/05/11 12:38:22;;;;;;;0.20;0.13;;;;;;;25.78;33.84;100674.13;1823141;76;22642;-46
2021/05/11 12:41:11;;;;;;;0.35;0.35;;;;;;;25.84;34.90;100687.98;1722188;83;21158;-46
2021/05/11 12:43:48;;;;;;;0.25;0.25;;;;;;;25.82;34.59;100679.19;1817337;76;22654;-46
2021/05/11 12:46:35;;;;;;;0.20;0.20;;;;;;;25.67;34.75;100671.98;1818846;76;23280;-46
2021/05/11 12:49:22;;;;;;;0.55;0.50;;;;;;;25.52;35.40;100668.75;1700952;82;21599;-46
2021/05/11 12:52:01;;;;;;;0.57;0.53;;;;;;;25.49;34.11;100673.68;1815918;76;22725;-46
2021/05/11 12:54:50;;;;;;;0.30;0.30;;;;;;;25.38;33.97;100677.72;1887477;76;21738;-46
2021/05/11 12:57:41;;;;;;;0.53;0.40;;;;;;;25.21;33.71;100677.63;1794453;79;21141;-46
2021/05/11 13:00:17;;;;;;;0.57;0.50;;;;;;;25.31;33.18;100674.20;1886610;76;23240;-46
2021/05/11 13:03:20;;;;;;;0.42;0.42;;;;;;;25.31;33.85;100677.00;1821754;75;22696;-46
2021/05/11 13:23:06;;;;;;;0.78;0.60;;;;;;;25.43;34.70;100676.59;1854004;75;21852;-47
2021/05/11 13:25:44;;;;;;;0.40;0.40;;;;;;;25.78;34.36;100672.72;1780920;80;21864;-47
2021/05/11 13:28:25;;;;;;;0.85;0.28;;;;;;;26.34;34.29;100674.11;1725087;79;22827;-46
2021/05/11 13:36:41;;;;;;;0.65;0.50;;;;;;;26.92;30.49;100662.94;1819366;76;22721;-46
2021/05/11 13:39:19;;;;;;;0.35;0.35;;;;;;;26.75;31.78;100663.58;1852700;76;22825;-47
2021/05/11 13:42:05;;;;;;;0.53;0.23;;;;;;;26.54;32.01;100670.57;1824456;76;21102;-47
2021/05/11 13:44:42;;;;;;;1.07;0.20;;;;;;;26.02;33.78;100665.30;1837083;76;22646;-46
2021/05/11 13:47:21;;;;;;;0.50;0.30;;;;;;;25.45;34.60;100672.23;1825125;76;22713;-46
2021/05/11 13:50:08;;;;;;;0.40;0.40;;;;;;;25.16;36.11;100665.93;1785731;80;21504;-46
2021/05/11 13:52:46;;;;;;;0.88;0.40;;;;;;;25.25;37.07;100660.33;1830268;76;22603;-46
2021/05/11 13:55:33;;;;;;;0.55;0.55;;;;;;;25.22;36.14;100670.87;1884249;76;23310;-46
2021/05/11 14:04:09;;;;;;;0.80;0.62;;;;;;;25.10;36.97;100665.44;1847181;76;22605;-46
2021/05/11 14:06:57;;;;;;;10.18;0.93;;;;;;;24.70;37.13;100676.48;1774798;78;21257;-46
2021/05/11 14:09:34;;;;;;;1.67;1.07;;;;;;;24.28;37.08;100670.23;1843781;76;22803;-46
2021/05/11 14:12:11;;;;;;;2.47;1.30;;;;;;;23.90;37.75;100671.82;1849773;75;27826;-46
2021/05/11 14:14:52;;;;;;;0.88;0.70;;;;;;;23.69;38.13;100676.31;1846480;76;24335;-46
2021/05/11 14:17:40;;;;;;;1.30;0.70;;;;;;;23.52;37.89;100678.90;1830817;77;21214;-46
2021/05/11 14:20:18;;;;;;;1.75;0.33;;;;;;;23.46;39.45;100680.92;1840036;76;22992;-46
2021/05/11 14:22:56;;;;;;;2.90;1.70;;;;;;;23.46;38.84;100678.13;1864316;75;27545;-46
2021/05/11 14:25:44;;;;;;;0.57;0.57;;;;;;;23.48;39.78;100687.75;1808378;78;21124;-46
2021/05/11 14:28:21;;;;;;;0.93;0.93;;;;;;;23.47;39.73;100697.89;1817925;75;22637;-46
2021/05/11 14:30:58;;;;;;;1.80;1.10;;;;;;;23.28;39.85;100680.48;1876407;76;21986;-46
2021/05/11 14:33:43;;;;;;;1.37;0.60;;;;;;;23.09;40.94;100695.94;1811323;77;21099;-46
2021/05/11 14:36:20;;;;;;;1.22;0.80;;;;;;;23.01;41.22;100695.53;1839404;76;22684;-46
2021/05/11 14:38:58;;;;;;;1.15;0.68;;;;;;;22.94;40.40;100703.66;1836042;76;23728;-46
2021/05/11 14:41:44;;;;;;;1.40;1.22;;;;;;;22.76;40.75;100709.56;1763706;79;21113;-46
2021/05/11 14:44:25;;;;;;;1.62;0.60;;;;;;;22.71;41.31;100707.63;1872196;76;22661;-46
2021/05/11 14:47:02;;;;;;;0.42;0.42;;;;;;;22.55;43.89;100735.41;1873710;76;22700;-46
2021/05/11 14:49:48;;;;;;;1.10;0.90;;;;;;;22.22;46.48;100750.95;1786818;79;21126;-46
2021/05/11 14:52:26;;;;;;;0.55;0.55;;;;;;;21.75;48.56;100750.84;1861207;75;22583;-46
2021/05/11 14:55:04;;;;;;;0.50;0.50;;;;;;;21.30;50.06;100749.52;1887261;75;22312;-46
2021/05/11 14:57:54;;;;;;;0.37;0.37;;;;;;;20.91;51.94;100770.58;1839837;77;21092;-46
2021/05/11 15:00:33;;;;;;;0.70;0.70;;;;;;;20.51;54.53;100755.00;1836812;76;23328;-46
2021/05/11 15:03:16;;;;;;;8.10;0.90;;;;;;;20.26;55.49;100763.77;1893989;74;22354;-46
2021/05/11 15:06:01;;;;;;;0.45;0.45;;;;;;;20.12;56.80;100768.98;1807745;78;21587;-46
2021/05/11 15:08:39;;;;;;;0.53;0.47;;;;;;;20.07;57.61;100774.72;1818469;76;22388;-46
2021/05/11 15:11:16;;;;;;;0.20;0.20;;;;;;;19.95;58.19;100786.56;1840223;76;22676;-46
2021/05/11 15:13:57;;;;;;;0.47;0.47;;;;;;;19.79;58.31;100793.80;1814991;76;22650;-46
2021/05/11 15:16:38;;;;;;;0.35;0.35;;;;;;;19.62;59.26;100791.08;1822919;76;23120;-46
2021/05/11 15:19:20;;;;;;;1.70;0.47;;;;;;;19.39;59.56;100800.21;1772594;80;21687;-46
2021/05/11 15:21:58;;;;;;;0.88;0.80;;;;;;;19.19;60.75;100802.54;1882094;76;22602;-46
2021/05/11 15:24:35;;;;;;;0.57;0.57;;;;;;;19.00;61.12;100801.50;1847286;76;22404;-45
2021/05/11 15:27:11;;;;;;;0.97;0.77;;;;;;;18.82;62.54;100803.48;1853055;75;27641;-46
2021/05/11 15:29:58;;;;;;;1.55;1.32;;;;;;;18.63;62.97;100808.48;1816486;78;21624;-46
2021/05/11 15:35:35;;;;;;;0.40;0.40;;;;;;;18.42;63.41;100814.66;1834884;76;22650;-46
2021/05/11 15:38:20;;;;;;;0.40;0.40;;;;;;;18.34;63.61;100818.78;1782342;78;21277;-46
2021/05/11 15:40:57;;;;;;;0.40;0.37;;;;;;;18.31;63.82;100827.16;1882790;75;22012;-45
2021/05/11 15:43:35;;;;;;;0.60;0.53;;;;;;;18.24;63.84;100822.67;1819615;76;22640;-46
2021/05/11 15:46:20;;;;;;;0.40;0.40;;;;;;;18.16;64.19;100830.39;1714661;83;21595;-45
2021/05/11 15:48:57;;;;;;;0.73;0.67;;;;;;;18.12;64.34;100832.16;1828008;76;27789;-45
2021/05/11 15:51:35;;;;;;;0.98;0.62;;;;;;;18.09;64.22;100830.03;1873910;74;22783;-46
2021/05/11 15:54:11;;;;;;;1.25;0.70;;;;;;;18.12;63.91;100824.67;1840507;75;28385;-46
2021/05/11 15:56:51;;;;;;;0.40;0.40;;;;;;;18.17;63.69;100818.17;1825135;76;22646;-46
2021/05/11 15:59:28;;;;;;;0.70;0.70;;;;;;;18.20;63.45;100821.67;1801082;76;27793;-45
2021/05/11 16:02:05;;;;;;;0.45;0.45;;;;;;;18.23;63.87;100818.29;1907913;74;22570;-45
2021/05/11 16:04:42;;;;;;;0.40;0.40;;;;;;;18.17;63.76;100820.94;1883878;75;22646;-46
2021/05/11 16:07:19;;;;;;;0.55;0.47;;;;;;;18.03;63.86;100819.13;1866883;76;22678;-46
2021/05/11 16:09:56;;;;;;;1.30;0.98;;;;;;;17.95;63.92;100817.16;1820505;76;27825;-45
2021/05/11 16:12:42;;;;;;;0.60;0.60;;;;;;;17.75;64.32;100817.68;1801919;78;21595;-46
2021/05/11 16:15:23;;;;;;;1.57;0.72;;;;;;;17.78;64.15;100817.06;1848380;76;23154;-46
2021/05/11 16:18:00;;;;;;;1.00;0.60;;;;;;;17.68;64.48;100821.47;1827643;76;22741;-46
2021/05/11 16:20:47;;;;;;;0.33;0.33;;;;;;;17.54;64.57;100830.67;1722076;83;21134;-45
2021/05/11 16:23:24;;;;;;;0.95;0.95;;;;;;;17.52;64.64;100828.79;1861086;76;22745;-45
2021/05/11 16:26:01;;;;;;;0.78;0.53;;;;;;;17.45;64.77;100828.42;1877353;74;21964;-45
2021/05/11 16:28:39;;;;;;;0.90;0.88;;;;;;;17.27;64.97;100833.61;1857760;76;22665;-45
2021/05/11 16:31:24;;;;;;;0.60;0.60;;;;;;;17.27;64.97;100833.61;1811667;78;21109;-45
2021/05/11 16:34:03;;;;;;;1.17;0.80;;;;;;;17.25;65.12;100837.25;1838846;77;38669;-45
2021/05/11 16:36:38;;;;;;;4.65;1.02;;;;;;;17.25;65.23;100830.34;1886453;76;22657;-46
2021/05/11 16:39:24;;;;;;;0.62;0.62;;;;;;;17.22;65.03;100832.36;1809310;78;21093;-46